Terminal Aerodrome Forecast
Issued by NWS Pittsburgh, PA

Current Version | Previous Version | Graphics & Text | Print | Product List | Glossary Off
Versions: 1 2 3 4 5 6 7 8 9 10 11 12 13 14 15 16 17 18 19 20 21 22 23 24 25

029
FTUS41 KPBZ 272101 AAA
TAFPIT
TAF AMD
KPIT 272101Z 2721/2824 26005KT P6SM VCSH BKN050
     FM280000 VRB03KT P6SM BKN050
     FM281200 VRB03KT P6SM VCSH BKN025
     FM281600 06005KT 5SM -SHRA BR OVC020
     FM282000 04010KT 3SM SHRA OVC015=

USA.gov is the U.S. government's official web portal to all federal, state and local government web resources and services.